地図

経路データ

SID SEASON NUMBER BASIN SUBBASIN NAME ISO_TIME NATURE LAT LON WMO_WIND WMO_PRES WMO_AGENCY TRACK_TYPE DIST2LAND LANDFALL IFLAG USA_AGENCY USA_ATCF_ID USA_LAT USA_LON USA_RECORD USA_STATUS USA_WIND USA_PRES USA_SSHS USA_R34_NE USA_R34_SE USA_R34_SW USA_R34_NW USA_R50_NE USA_R50_SE USA_R50_SW USA_R50_NW USA_R64_NE USA_R64_SE USA_R64_SW USA_R64_NW USA_POCI USA_ROCI USA_RMW USA_EYE TOKYO_LAT TOKYO_LON TOKYO_GRADE TOKYO_WIND TOKYO_PRES TOKYO_R50_DIR TOKYO_R50_LONG TOKYO_R50_SHORT TOKYO_R30_DIR TOKYO_R30_LONG TOKYO_R30_SHORT TOKYO_LAND CMA_LAT CMA_LON CMA_CAT CMA_WIND CMA_PRES HKO_LAT HKO_LON HKO_CAT HKO_WIND HKO_PRES NEWDELHI_LAT NEWDELHI_LON NEWDELHI_GRADE NEWDELHI_WIND NEWDELHI_PRES NEWDELHI_CI NEWDELHI_DP NEWDELHI_POCI REUNION_LAT REUNION_LON REUNION_TYPE REUNION_WIND REUNION_PRES REUNION_TNUM REUNION_CI REUNION_RMW REUNION_R34_NE REUNION_R34_SE REUNION_R34_SW REUNION_R34_NW REUNION_R50_NE REUNION_R50_SE REUNION_R50_SW REUNION_R50_NW REUNION_R64_NE REUNION_R64_SE REUNION_R64_SW REUNION_R64_NW BOM_LAT BOM_LON BOM_TYPE BOM_WIND BOM_PRES BOM_TNUM BOM_CI BOM_RMW BOM_R34_NE BOM_R34_SE BOM_R34_SW BOM_R34_NW BOM_R50_NE BOM_R50_SE BOM_R50_SW BOM_R50_NW BOM_R64_NE BOM_R64_SE BOM_R64_SW BOM_R64_NW BOM_ROCI BOM_POCI BOM_EYE BOM_POS_METHOD BOM_PRES_METHOD NADI_LAT NADI_LON NADI_CAT NADI_WIND NADI_PRES WELLINGTON_LAT WELLINGTON_LON WELLINGTON_WIND WELLINGTON_PRES DS824_LAT DS824_LON DS824_STAGE DS824_WIND DS824_PRES TD9636_LAT TD9636_LON TD9636_STAGE TD9636_WIND TD9636_PRES TD9635_LAT TD9635_LON TD9635_WIND TD9635_PRES TD9635_ROCI NEUMANN_LAT NEUMANN_LON NEUMANN_CLASS NEUMANN_WIND NEUMANN_PRES MLC_LAT MLC_LON MLC_CLASS MLC_WIND MLC_PRES USA_GUST BOM_GUST BOM_GUST_PER REUNION_GUST REUNION_GUST_PER USA_SEAHGT USA_SEARAD_NE USA_SEARAD_SE USA_SEARAD_SW USA_SEARAD_NW STORM_SPEED STORM_DIR
1906234N29307 1906 25 NA NA NOT_NAMED 1906-08-22 06:00:00 TS 28.7000 -53.1000 30 hurdat_atl main 1714 1691 O_____________ hurdat_atl AL031906 28.7000 -53.1000 TD 30 -1 9 290
1906234N29307 1906 25 NA NA NOT_NAMED 1906-08-22 09:00:00 TS 28.8429 -53.5597 main 1684 1669 P_____________ AL031906 28.8429 -53.5597 TD 30 -1 8 291
1906234N29307 1906 25 NA NA NOT_NAMED 1906-08-22 12:00:00 TS 29.0000 -54.0000 30 hurdat_atl main 1670 1656 O_____________ hurdat_atl AL031906 29.0000 -54.0000 TD 30 -1 8 295
1906234N29307 1906 25 NA NA NOT_NAMED 1906-08-22 15:00:00 TS 29.1848 -54.4077 main 1657 1644 P_____________ AL031906 29.1848 -54.4077 TD 30 -1 8 300
1906234N29307 1906 25 NA NA NOT_NAMED 1906-08-22 18:00:00 TS 29.4000 -54.8000 30 hurdat_atl main 1645 1635 O_____________ hurdat_atl AL031906 29.4000 -54.8000 TD 30 -1 8 303
1906234N29307 1906 25 NA NA NOT_NAMED 1906-08-22 21:00:00 TS 29.6348 -55.1928 main 1635 1630 P_____________ AL031906 29.6348 -55.1928 TD 32 -1 9 306
1906234N29307 1906 25 NA NA NOT_NAMED 1906-08-23 00:00:00 TS 29.9000 -55.6000 35 hurdat_atl main 1635 1625 O_____________ hurdat_atl AL031906 29.9000 -55.6000 TS 35 0 10 305
1906234N29307 1906 25 NA NA NOT_NAMED 1906-08-23 03:00:00 TS 30.1778 -56.0947 main 1630 1624 P_____________ AL031906 30.1778 -56.0947 TS 35 0 10 308
1906234N29307 1906 25 NA NA NOT_NAMED 1906-08-23 06:00:00 TS 30.5000 -56.5000 35 hurdat_atl main 1634 1593 O_____________ hurdat_atl AL031906 30.5000 -56.5000 TS 35 0 9 324
1906234N29307 1906 25 NA NA NOT_NAMED 1906-08-23 09:00:00 TS 30.8847 -56.6901 main 1593 1553 P_____________ AL031906 30.8847 -56.6901 TS 37 0 8 348
1906234N29307 1906 25 NA NA NOT_NAMED 1906-08-23 12:00:00 TS 31.3000 -56.7000 40 hurdat_atl main 1553 1518 O_____________ hurdat_atl AL031906 31.3000 -56.7000 TS 40 0 8 4
1906234N29307 1906 25 NA NA NOT_NAMED 1906-08-23 15:00:00 TS 31.7224 -56.6103 main 1518 1487 P_____________ AL031906 31.7224 -56.6103 TS 42 0 8 18
1906234N29307 1906 25 NA NA NOT_NAMED 1906-08-23 18:00:00 TS 32.1000 -56.4000 45 hurdat_atl main 1487 1467 O_____________ hurdat_atl AL031906 32.1000 -56.4000 TS 45 0 8 32
1906234N29307 1906 25 NA NA NOT_NAMED 1906-08-23 21:00:00 TS 32.3800 -56.1299 main 1472 1463 P_____________ AL031906 32.3800 -56.1299 TS 47 0 7 45
1906234N29307 1906 25 NA NA NOT_NAMED 1906-08-24 00:00:00 TS 32.6000 -55.8000 50 hurdat_atl main 1467 1461 O_____________ hurdat_atl AL031906 32.6000 -55.8000 TS 50 0 7 54
1906234N29307 1906 25 NA NA NOT_NAMED 1906-08-24 03:00:00 TS 32.7772 -55.4792 main 1461 1448 P_____________ AL031906 32.7772 -55.4792 TS 52 0 7 56
1906234N29307 1906 25 NA NA NOT_NAMED 1906-08-24 06:00:00 TS 33.0000 -55.1000 55 hurdat_atl main 1451 1429 O_____________ hurdat_atl AL031906 33.0000 -55.1000 TS 55 0 9 51
1906234N29307 1906 25 NA NA NOT_NAMED 1906-08-24 09:00:00 TS 33.3473 -54.6444 main 1436 1401 P_____________ AL031906 33.3473 -54.6444 TS 57 0 12 46
1906234N29307 1906 25 NA NA NOT_NAMED 1906-08-24 12:00:00 TS 33.8000 -54.1000 60 hurdat_atl main 1401 1368 O_____________ hurdat_atl AL031906 33.8000 -54.1000 TS 60 0 13 45
1906234N29307 1906 25 NA NA NOT_NAMED 1906-08-24 15:00:00 TS 34.2971 -53.4937 main 1368 1302 P_____________ AL031906 34.2971 -53.4937 TS 60 0 15 44
1906234N29307 1906 25 NA NA NOT_NAMED 1906-08-24 18:00:00 TS 34.9000 -52.8000 60 hurdat_atl main 1302 1227 O_____________ hurdat_atl AL031906 34.9000 -52.8000 TS 60 0 18 42
1906234N29307 1906 25 NA NA NOT_NAMED 1906-08-24 21:00:00 TS 35.6501 -52.0160 main 1216 1146 P_____________ AL031906 35.6501 -52.0160 TS 57 0 20 41
1906234N29307 1906 25 NA NA NOT_NAMED 1906-08-25 00:00:00 TS 36.4000 -51.2000 55 hurdat_atl main 1146 1100 O_____________ hurdat_atl AL031906 36.4000 -51.2000 TS 55 0 18 44
1906234N29307 1906 25 NA NA NOT_NAMED 1906-08-25 03:00:00 TS 36.9491 -50.4540 main 1101 1052 P_____________ AL031906 36.9491 -50.4540 TS 52 0 16 47
1906234N29307 1906 25 NA NA NOT_NAMED 1906-08-25 06:00:00 ET 37.5000 -49.7000 50 hurdat_atl main 1052 995 O_____________ hurdat_atl AL031906 37.5000 -49.7000 EX 50 -4 18 44
1906234N29307 1906 25 NA NA NOT_NAMED 1906-08-25 09:00:00 ET 38.2422 -48.8654 main 997 944 P_____________ AL031906 38.2422 -48.8654 EX 47 -4 20 42
1906234N29307 1906 25 NA NA NOT_NAMED 1906-08-25 12:00:00 ET 39.0000 -48.0000 45 hurdat_atl main 944 916 O_____________ hurdat_atl AL031906 39.0000 -48.0000 EX 45 -4 19 44
1906234N29307 1906 25 NA NA NOT_NAMED 1906-08-25 15:00:00 ET 39.6410 -47.1465 main 920 901 P_____________ AL031906 39.6410 -47.1465 EX 42 -4 18 47
1906234N29307 1906 25 NA NA NOT_NAMED 1906-08-25 18:00:00 ET 40.2000 -46.3000 40 hurdat_atl main 901 O_____________ hurdat_atl AL031906 40.2000 -46.3000 EX 40 -4 17 49

IBTrACS Databaseについて

本データベースは、米国NOAAが公開する1842年以降の世界の熱帯低気圧のベストトラックデータアーカイブInternational Best Track Archive for Climate Stewardship (IBTrACS)を、ウェブで閲覧しやすい形式に変換したものです。

最終更新日:2021-12-06